sensor_id;sensor_type;location;lat;lon;timestamp;temperature;humidity
16976;DHT22;8604;48.148;-1.786;2023-06-22T00:01:35;18.90;99.90
16976;DHT22;8604;48.148;-1.786;2023-06-22T00:04:05;18.90;99.90
16976;DHT22;8604;48.148;-1.786;2023-06-22T00:06:34;18.80;99.90
16976;DHT22;8604;48.148;-1.786;2023-06-22T00:09:02;18.80;99.90
16976;DHT22;8604;48.148;-1.786;2023-06-22T00:11:31;18.80;99.90
16976;DHT22;8604;48.148;-1.786;2023-06-22T00:14:00;18.80;99.90
16976;DHT22;8604;48.148;-1.786;2023-06-22T00:16:28;18.80;99.90
16976;DHT22;8604;48.148;-1.786;2023-06-22T00:18:57;18.80;99.90
16976;DHT22;8604;48.148;-1.786;2023-06-22T00:21:29;18.70;99.90
16976;DHT22;8604;48.148;-1.786;2023-06-22T00:23:57;18.70;99.90
16976;DHT22;8604;48.148;-1.786;2023-06-22T00:26:26;18.70;99.90
16976;DHT22;8604;48.148;-1.786;2023-06-22T00:28:54;18.70;99.90
16976;DHT22;8604;48.148;-1.786;2023-06-22T00:31:26;18.60;99.90
16976;DHT22;8604;48.148;-1.786;2023-06-22T00:33:54;18.60;99.90
16976;DHT22;8604;48.148;-1.786;2023-06-22T00:36:22;18.60;99.90
16976;DHT22;8604;48.148;-1.786;2023-06-22T00:38:53;18.60;99.90
16976;DHT22;8604;48.148;-1.786;2023-06-22T00:41:21;18.60;99.90
16976;DHT22;8604;48.148;-1.786;2023-06-22T00:43:50;18.60;99.90
16976;DHT22;8604;48.148;-1.786;2023-06-22T00:46:18;18.60;99.90
16976;DHT22;8604;48.148;-1.786;2023-06-22T00:48:47;18.50;99.90
16976;DHT22;8604;48.148;-1.786;2023-06-22T00:51:15;18.50;99.90
16976;DHT22;8604;48.148;-1.786;2023-06-22T00:53:44;18.50;99.90
16976;DHT22;8604;48.148;-1.786;2023-06-22T00:56:14;18.40;99.90
16976;DHT22;8604;48.148;-1.786;2023-06-22T00:58:46;18.40;99.90
16976;DHT22;8604;48.148;-1.786;2023-06-22T01:01:16;18.40;99.90
16976;DHT22;8604;48.148;-1.786;2023-06-22T01:03:45;18.40;99.90
16976;DHT22;8604;48.148;-1.786;2023-06-22T01:06:16;18.40;99.90
16976;DHT22;8604;48.148;-1.786;2023-06-22T01:09:00;18.40;99.90
16976;DHT22;8604;48.148;-1.786;2023-06-22T01:11:36;18.40;99.90
16976;DHT22;8604;48.148;-1.786;2023-06-22T01:14:10;18.40;99.90
16976;DHT22;8604;48.148;-1.786;2023-06-22T01:16:41;18.40;99.90
16976;DHT22;8604;48.148;-1.786;2023-06-22T01:19:27;18.40;99.90
16976;DHT22;8604;48.148;-1.786;2023-06-22T01:22:01;18.40;99.90
16976;DHT22;8604;48.148;-1.786;2023-06-22T01:24:47;18.40;99.90
16976;DHT22;8604;48.148;-1.786;2023-06-22T01:27:31;18.40;99.90
16976;DHT22;8604;48.148;-1.786;2023-06-22T01:30:04;18.40;99.90
16976;DHT22;8604;48.148;-1.786;2023-06-22T01:32:36;18.40;99.90
16976;DHT22;8604;48.148;-1.786;2023-06-22T01:35:07;18.40;99.90
16976;DHT22;8604;48.148;-1.786;2023-06-22T01:37:37;18.40;99.90
16976;DHT22;8604;48.148;-1.786;2023-06-22T01:40:07;18.40;99.90
16976;DHT22;8604;48.148;-1.786;2023-06-22T01:42:37;18.40;99.90
16976;DHT22;8604;48.148;-1.786;2023-06-22T01:45:10;18.40;99.90
16976;DHT22;8604;48.148;-1.786;2023-06-22T01:47:39;18.40;99.90
16976;DHT22;8604;48.148;-1.786;2023-06-22T01:50:09;18.40;99.90
16976;DHT22;8604;48.148;-1.786;2023-06-22T01:52:38;18.40;99.90
16976;DHT22;8604;48.148;-1.786;2023-06-22T01:55:07;18.40;99.90
16976;DHT22;8604;48.148;-1.786;2023-06-22T01:57:35;18.40;99.90
16976;DHT22;8604;48.148;-1.786;2023-06-22T02:00:10;18.40;99.90
16976;DHT22;8604;48.148;-1.786;2023-06-22T02:02:54;18.40;99.90
16976;DHT22;8604;48.148;-1.786;2023-06-22T02:05:26;18.40;99.90
16976;DHT22;8604;48.148;-1.786;2023-06-22T02:08:02;18.40;99.90
16976;DHT22;8604;48.148;-1.786;2023-06-22T02:10:34;18.40;99.90
16976;DHT22;8604;48.148;-1.786;2023-06-22T02:13:07;18.40;99.90
16976;DHT22;8604;48.148;-1.786;2023-06-22T02:15:38;18.40;99.90
16976;DHT22;8604;48.148;-1.786;2023-06-22T02:18:07;18.40;99.90
16976;DHT22;8604;48.148;-1.786;2023-06-22T02:20:36;18.40;99.90
16976;DHT22;8604;48.148;-1.786;2023-06-22T02:23:05;18.40;99.90
16976;DHT22;8604;48.148;-1.786;2023-06-22T02:25:35;18.40;99.90
16976;DHT22;8604;48.148;-1.786;2023-06-22T02:28:04;18.40;99.90
16976;DHT22;8604;48.148;-1.786;2023-06-22T02:30:32;18.40;99.90
16976;DHT22;8604;48.148;-1.786;2023-06-22T02:33:02;18.40;99.90
16976;DHT22;8604;48.148;-1.786;2023-06-22T02:35:31;18.30;99.90
16976;DHT22;8604;48.148;-1.786;2023-06-22T02:38:04;18.30;99.90
16976;DHT22;8604;48.148;-1.786;2023-06-22T02:40:32;18.30;99.90
16976;DHT22;8604;48.148;-1.786;2023-06-22T02:43:01;18.30;99.90
16976;DHT22;8604;48.148;-1.786;2023-06-22T02:45:31;18.30;99.90
16976;DHT22;8604;48.148;-1.786;2023-06-22T02:48:01;18.20;99.90
16976;DHT22;8604;48.148;-1.786;2023-06-22T02:50:30;18.20;99.90
16976;DHT22;8604;48.148;-1.786;2023-06-22T02:52:59;18.20;99.90
16976;DHT22;8604;48.148;-1.786;2023-06-22T02:55:31;18.20;99.90
16976;DHT22;8604;48.148;-1.786;2023-06-22T02:57:59;18.10;99.90
16976;DHT22;8604;48.148;-1.786;2023-06-22T03:00:34;18.10;99.90
16976;DHT22;8604;48.148;-1.786;2023-06-22T03:03:04;18.00;99.90
16976;DHT22;8604;48.148;-1.786;2023-06-22T03:05:33;18.00;99.90
16976;DHT22;8604;48.148;-1.786;2023-06-22T03:08:03;18.00;99.90
16976;DHT22;8604;48.148;-1.786;2023-06-22T03:10:33;18.00;99.90
16976;DHT22;8604;48.148;-1.786;2023-06-22T03:13:02;18.00;99.90
16976;DHT22;8604;48.148;-1.786;2023-06-22T03:15:31;17.90;99.90
16976;DHT22;8604;48.148;-1.786;2023-06-22T03:18:01;17.90;99.90
16976;DHT22;8604;48.148;-1.786;2023-06-22T03:20:31;17.90;99.90
16976;DHT22;8604;48.148;-1.786;2023-06-22T03:23:00;17.90;99.90
16976;DHT22;8604;48.148;-1.786;2023-06-22T03:25:29;17.90;99.90
16976;DHT22;8604;48.148;-1.786;2023-06-22T03:27:58;17.90;99.90
16976;DHT22;8604;48.148;-1.786;2023-06-22T03:30:27;17.90;99.90
16976;DHT22;8604;48.148;-1.786;2023-06-22T03:32:56;17.80;99.90
16976;DHT22;8604;48.148;-1.786;2023-06-22T03:35:26;17.70;99.90
16976;DHT22;8604;48.148;-1.786;2023-06-22T03:37:56;17.70;99.90
16976;DHT22;8604;48.148;-1.786;2023-06-22T03:40:25;17.70;99.90
16976;DHT22;8604;48.148;-1.786;2023-06-22T03:42:54;17.70;99.90
16976;DHT22;8604;48.148;-1.786;2023-06-22T03:45:22;17.60;99.90
16976;DHT22;8604;48.148;-1.786;2023-06-22T03:47:50;17.60;99.90
16976;DHT22;8604;48.148;-1.786;2023-06-22T03:50:19;17.60;99.90
16976;DHT22;8604;48.148;-1.786;2023-06-22T03:52:48;17.60;99.90
16976;DHT22;8604;48.148;-1.786;2023-06-22T03:55:20;17.50;99.90
16976;DHT22;8604;48.148;-1.786;2023-06-22T03:57:48;17.50;99.90
16976;DHT22;8604;48.148;-1.786;2023-06-22T04:00:17;17.50;99.90
16976;DHT22;8604;48.148;-1.786;2023-06-22T04:02:45;17.50;99.90
16976;DHT22;8604;48.148;-1.786;2023-06-22T04:05:14;17.50;99.90
16976;DHT22;8604;48.148;-1.786;2023-06-22T04:07:44;17.50;99.90
16976;DHT22;8604;48.148;-1.786;2023-06-22T04:10:13;17.50;99.90
16976;DHT22;8604;48.148;-1.786;2023-06-22T04:12:46;17.50;99.90
16976;DHT22;8604;48.148;-1.786;2023-06-22T04:15:15;17.60;99.90
16976;DHT22;8604;48.148;-1.786;2023-06-22T04:17:43;17.60;99.90
16976;DHT22;8604;48.148;-1.786;2023-06-22T04:20:12;17.60;99.90
16976;DHT22;8604;48.148;-1.786;2023-06-22T04:22:41;17.50;99.90
16976;DHT22;8604;48.148;-1.786;2023-06-22T04:25:09;17.60;99.90
16976;DHT22;8604;48.148;-1.786;2023-06-22T04:27:37;17.50;99.90
16976;DHT22;8604;48.148;-1.786;2023-06-22T04:30:09;17.50;99.90
16976;DHT22;8604;48.148;-1.786;2023-06-22T04:32:41;17.50;99.90
16976;DHT22;8604;48.148;-1.786;2023-06-22T04:35:09;17.60;99.90
16976;DHT22;8604;48.148;-1.786;2023-06-22T04:37:39;17.50;99.90
16976;DHT22;8604;48.148;-1.786;2023-06-22T04:40:08;17.50;99.90
16976;DHT22;8604;48.148;-1.786;2023-06-22T04:42:39;17.50;99.90
16976;DHT22;8604;48.148;-1.786;2023-06-22T04:45:10;17.50;99.90
16976;DHT22;8604;48.148;-1.786;2023-06-22T04:47:38;17.50;99.90
16976;DHT22;8604;48.148;-1.786;2023-06-22T04:50:07;17.50;99.90
16976;DHT22;8604;48.148;-1.786;2023-06-22T04:52:37;17.50;99.90
16976;DHT22;8604;48.148;-1.786;2023-06-22T04:55:07;17.50;99.90
16976;DHT22;8604;48.148;-1.786;2023-06-22T04:57:35;17.50;99.90
16976;DHT22;8604;48.148;-1.786;2023-06-22T05:00:09;17.50;99.90
16976;DHT22;8604;48.148;-1.786;2023-06-22T05:02:44;17.50;99.90
16976;DHT22;8604;48.148;-1.786;2023-06-22T05:05:13;17.50;99.90
16976;DHT22;8604;48.148;-1.786;2023-06-22T05:07:43;17.50;99.90
16976;DHT22;8604;48.148;-1.786;2023-06-22T05:10:12;17.50;99.90
16976;DHT22;8604;48.148;-1.786;2023-06-22T05:12:41;17.50;99.90
16976;DHT22;8604;48.148;-1.786;2023-06-22T05:15:11;17.50;99.90
16976;DHT22;8604;48.148;-1.786;2023-06-22T05:17:39;17.50;99.90
16976;DHT22;8604;48.148;-1.786;2023-06-22T05:20:11;17.50;99.90
16976;DHT22;8604;48.148;-1.786;2023-06-22T05:22:40;17.50;99.90
16976;DHT22;8604;48.148;-1.786;2023-06-22T05:25:11;17.60;99.90
16976;DHT22;8604;48.148;-1.786;2023-06-22T05:27:42;17.60;99.90
16976;DHT22;8604;48.148;-1.786;2023-06-22T05:30:15;17.60;99.90
16976;DHT22;8604;48.148;-1.786;2023-06-22T05:35:59;17.70;99.90
16976;DHT22;8604;48.148;-1.786;2023-06-22T05:38:41;17.70;99.90
16976;DHT22;8604;48.148;-1.786;2023-06-22T05:41:15;17.80;99.90
16976;DHT22;8604;48.148;-1.786;2023-06-22T05:44:26;17.80;99.90
16976;DHT22;8604;48.148;-1.786;2023-06-22T07:51:54;22.30;99.90
16976;DHT22;8604;48.148;-1.786;2023-06-22T07:54:22;22.80;99.90
16976;DHT22;8604;48.148;-1.786;2023-06-22T07:56:51;23.20;99.90
16976;DHT22;8604;48.148;-1.786;2023-06-22T07:59:20;23.70;99.90
16976;DHT22;8604;48.148;-1.786;2023-06-22T08:01:52;24.20;99.90
16976;DHT22;8604;48.148;-1.786;2023-06-22T08:04:21;24.60;99.90
16976;DHT22;8604;48.148;-1.786;2023-06-22T08:06:58;24.90;99.90
16976;DHT22;8604;48.148;-1.786;2023-06-22T08:09:28;25.10;99.90
16976;DHT22;8604;48.148;-1.786;2023-06-22T08:11:57;25.60;99.90
16976;DHT22;8604;48.148;-1.786;2023-06-22T08:14:29;25.90;99.90
16976;DHT22;8604;48.148;-1.786;2023-06-22T08:16:58;26.20;99.90
16976;DHT22;8604;48.148;-1.786;2023-06-22T08:19:34;26.30;99.90
16976;DHT22;8604;48.148;-1.786;2023-06-22T08:22:05;26.40;99.90
16976;DHT22;8604;48.148;-1.786;2023-06-22T08:24:34;26.60;99.90
16976;DHT22;8604;48.148;-1.786;2023-06-22T08:27:16;26.60;99.90
16976;DHT22;8604;48.148;-1.786;2023-06-22T08:29:56;26.60;99.90
16976;DHT22;8604;48.148;-1.786;2023-06-22T08:32:29;26.60;99.90
16976;DHT22;8604;48.148;-1.786;2023-06-22T08:35:02;27.10;99.90
16976;DHT22;8604;48.148;-1.786;2023-06-22T08:37:36;27.50;99.90
16976;DHT22;8604;48.148;-1.786;2023-06-22T08:40:10;27.80;99.90
16976;DHT22;8604;48.148;-1.786;2023-06-22T08:42:40;28.20;99.90
16976;DHT22;8604;48.148;-1.786;2023-06-22T08:45:10;28.80;99.90
16976;DHT22;8604;48.148;-1.786;2023-06-22T08:47:39;29.10;99.90
16976;DHT22;8604;48.148;-1.786;2023-06-22T08:50:09;29.20;99.90
16976;DHT22;8604;48.148;-1.786;2023-06-22T08:52:41;29.20;99.90
16976;DHT22;8604;48.148;-1.786;2023-06-22T08:55:15;29.00;99.90
16976;DHT22;8604;48.148;-1.786;2023-06-22T08:57:46;29.10;99.90
16976;DHT22;8604;48.148;-1.786;2023-06-22T09:00:18;29.30;99.90
16976;DHT22;8604;48.148;-1.786;2023-06-22T09:02:48;29.50;99.90
16976;DHT22;8604;48.148;-1.786;2023-06-22T09:05:23;29.50;99.90
16976;DHT22;8604;48.148;-1.786;2023-06-22T09:08:01;30.00;99.90
16976;DHT22;8604;48.148;-1.786;2023-06-22T09:10:30;30.30;99.90
16976;DHT22;8604;48.148;-1.786;2023-06-22T09:13:16;30.50;99.90
16976;DHT22;8604;48.148;-1.786;2023-06-22T09:15:45;30.30;99.90
16976;DHT22;8604;48.148;-1.786;2023-06-22T09:18:14;30.40;99.90
16976;DHT22;8604;48.148;-1.786;2023-06-22T09:20:44;30.80;99.90
16976;DHT22;8604;48.148;-1.786;2023-06-22T09:23:15;31.20;99.90
16976;DHT22;8604;48.148;-1.786;2023-06-22T09:25:46;31.50;99.90
16976;DHT22;8604;48.148;-1.786;2023-06-22T09:28:21;31.80;99.90
16976;DHT22;8604;48.148;-1.786;2023-06-22T09:31:09;32.10;99.90
16976;DHT22;8604;48.148;-1.786;2023-06-22T09:55:12;32.60;99.90
16976;DHT22;8604;48.148;-1.786;2023-06-22T09:57:43;32.30;99.90
16976;DHT22;8604;48.148;-1.786;2023-06-22T10:00:51;32.20;99.90
16976;DHT22;8604;48.148;-1.786;2023-06-22T10:03:20;32.60;99.90
16976;DHT22;8604;48.148;-1.786;2023-06-22T10:05:50;33.00;99.90
16976;DHT22;8604;48.148;-1.786;2023-06-22T10:08:19;33.00;99.90
16976;DHT22;8604;48.148;-1.786;2023-06-22T10:10:49;32.50;99.90
16976;DHT22;8604;48.148;-1.786;2023-06-22T10:13:20;32.40;99.90
16976;DHT22;8604;48.148;-1.786;2023-06-22T10:15:49;32.30;99.90
16976;DHT22;8604;48.148;-1.786;2023-06-22T10:18:19;31.50;99.90
16976;DHT22;8604;48.148;-1.786;2023-06-22T10:20:49;30.80;99.90
16976;DHT22;8604;48.148;-1.786;2023-06-22T10:23:19;30.80;99.90
16976;DHT22;8604;48.148;-1.786;2023-06-22T10:25:49;31.40;99.90
16976;DHT22;8604;48.148;-1.786;2023-06-22T10:28:18;31.60;99.90
16976;DHT22;8604;48.148;-1.786;2023-06-22T10:30:59;32.30;99.90
16976;DHT22;8604;48.148;-1.786;2023-06-22T12:18:05;31.50;99.90
16976;DHT22;8604;48.148;-1.786;2023-06-22T12:20:34;31.50;99.90
16976;DHT22;8604;48.148;-1.786;2023-06-22T12:23:02;31.70;99.90
16976;DHT22;8604;48.148;-1.786;2023-06-22T12:25:31;31.50;99.90
16976;DHT22;8604;48.148;-1.786;2023-06-22T12:28:01;31.50;99.90
16976;DHT22;8604;48.148;-1.786;2023-06-22T12:30:32;31.40;99.90
16976;DHT22;8604;48.148;-1.786;2023-06-22T12:33:03;30.90;99.90
16976;DHT22;8604;48.148;-1.786;2023-06-22T12:35:32;31.00;99.90
16976;DHT22;8604;48.148;-1.786;2023-06-22T12:38:00;31.10;99.90
16976;DHT22;8604;48.148;-1.786;2023-06-22T12:40:30;31.00;99.90
16976;DHT22;8604;48.148;-1.786;2023-06-22T12:43:00;30.80;99.90
16976;DHT22;8604;48.148;-1.786;2023-06-22T12:45:29;30.30;99.90
16976;DHT22;8604;48.148;-1.786;2023-06-22T12:48:00;30.30;99.90
16976;DHT22;8604;48.148;-1.786;2023-06-22T12:50:31;30.30;99.90
16976;DHT22;8604;48.148;-1.786;2023-06-22T12:53:02;30.30;99.90
16976;DHT22;8604;48.148;-1.786;2023-06-22T12:55:31;30.40;99.90
16976;DHT22;8604;48.148;-1.786;2023-06-22T12:58:25;30.30;99.90
16976;DHT22;8604;48.148;-1.786;2023-06-22T13:00:54;30.30;99.90
16976;DHT22;8604;48.148;-1.786;2023-06-22T13:03:22;30.30;99.90
16976;DHT22;8604;48.148;-1.786;2023-06-22T13:05:55;30.10;99.90
16976;DHT22;8604;48.148;-1.786;2023-06-22T13:08:23;29.70;99.90
16976;DHT22;8604;48.148;-1.786;2023-06-22T13:11:14;29.60;99.90
16976;DHT22;8604;48.148;-1.786;2023-06-22T13:13:44;29.20;99.90
16976;DHT22;8604;48.148;-1.786;2023-06-22T13:16:23;29.20;99.90
16976;DHT22;8604;48.148;-1.786;2023-06-22T13:19:38;29.10;99.90
16976;DHT22;8604;48.148;-1.786;2023-06-22T13:22:26;29.00;99.90
16976;DHT22;8604;48.148;-1.786;2023-06-22T13:24:55;28.90;99.90
16976;DHT22;8604;48.148;-1.786;2023-06-22T13:27:24;28.70;99.90
16976;DHT22;8604;48.148;-1.786;2023-06-22T13:29:53;28.60;99.90
16976;DHT22;8604;48.148;-1.786;2023-06-22T13:32:21;28.60;99.90
16976;DHT22;8604;48.148;-1.786;2023-06-22T13:34:52;28.50;99.90
16976;DHT22;8604;48.148;-1.786;2023-06-22T13:37:21;28.30;99.90
16976;DHT22;8604;48.148;-1.786;2023-06-22T13:39:50;28.10;99.90
16976;DHT22;8604;48.148;-1.786;2023-06-22T13:42:19;28.00;99.90
16976;DHT22;8604;48.148;-1.786;2023-06-22T13:44:48;28.10;99.90
16976;DHT22;8604;48.148;-1.786;2023-06-22T13:47:16;28.20;99.90
16976;DHT22;8604;48.148;-1.786;2023-06-22T13:49:44;28.30;99.90
16976;DHT22;8604;48.148;-1.786;2023-06-22T13:52:13;28.30;99.90
16976;DHT22;8604;48.148;-1.786;2023-06-22T13:54:43;28.40;99.90
16976;DHT22;8604;48.148;-1.786;2023-06-22T13:57:11;28.40;99.90
16976;DHT22;8604;48.148;-1.786;2023-06-22T13:59:40;28.60;99.90
16976;DHT22;8604;48.148;-1.786;2023-06-22T14:02:35;28.70;99.90
16976;DHT22;8604;48.148;-1.786;2023-06-22T14:05:31;28.70;99.90
16976;DHT22;8604;48.148;-1.786;2023-06-22T14:08:00;28.70;99.90
16976;DHT22;8604;48.148;-1.786;2023-06-22T14:10:32;28.50;99.90
16976;DHT22;8604;48.148;-1.786;2023-06-22T14:13:01;28.40;99.90
16976;DHT22;8604;48.148;-1.786;2023-06-22T14:15:33;28.30;99.90
16976;DHT22;8604;48.148;-1.786;2023-06-22T14:18:01;28.20;99.90
16976;DHT22;8604;48.148;-1.786;2023-06-22T14:20:30;28.10;99.90
16976;DHT22;8604;48.148;-1.786;2023-06-22T14:23:00;28.10;99.90
16976;DHT22;8604;48.148;-1.786;2023-06-22T14:25:29;28.00;99.90
16976;DHT22;8604;48.148;-1.786;2023-06-22T14:27:59;27.90;99.90
16976;DHT22;8604;48.148;-1.786;2023-06-22T14:30:27;27.90;99.90
16976;DHT22;8604;48.148;-1.786;2023-06-22T14:32:57;27.70;99.90
16976;DHT22;8604;48.148;-1.786;2023-06-22T14:35:26;27.60;99.90
16976;DHT22;8604;48.148;-1.786;2023-06-22T14:37:54;27.60;99.90
16976;DHT22;8604;48.148;-1.786;2023-06-22T14:40:23;27.50;99.90
16976;DHT22;8604;48.148;-1.786;2023-06-22T14:42:53;27.30;99.90
16976;DHT22;8604;48.148;-1.786;2023-06-22T14:45:25;27.30;99.90
16976;DHT22;8604;48.148;-1.786;2023-06-22T14:47:54;27.40;99.90
16976;DHT22;8604;48.148;-1.786;2023-06-22T14:50:22;27.30;99.90
16976;DHT22;8604;48.148;-1.786;2023-06-22T14:52:51;27.30;99.90
16976;DHT22;8604;48.148;-1.786;2023-06-22T14:55:20;27.30;99.90
16976;DHT22;8604;48.148;-1.786;2023-06-22T14:57:48;27.30;99.90
16976;DHT22;8604;48.148;-1.786;2023-06-22T15:00:19;27.30;99.90
16976;DHT22;8604;48.148;-1.786;2023-06-22T15:02:49;27.30;99.90
16976;DHT22;8604;48.148;-1.786;2023-06-22T15:05:18;27.30;99.90
16976;DHT22;8604;48.148;-1.786;2023-06-22T15:07:50;27.30;99.90
16976;DHT22;8604;48.148;-1.786;2023-06-22T15:10:19;27.30;99.90
16976;DHT22;8604;48.148;-1.786;2023-06-22T15:12:48;27.20;99.90
16976;DHT22;8604;48.148;-1.786;2023-06-22T15:15:16;27.20;99.90
16976;DHT22;8604;48.148;-1.786;2023-06-22T15:17:45;27.10;99.90
16976;DHT22;8604;48.148;-1.786;2023-06-22T15:20:15;27.20;99.90
16976;DHT22;8604;48.148;-1.786;2023-06-22T15:22:44;27.10;99.90
16976;DHT22;8604;48.148;-1.786;2023-06-22T15:25:12;27.10;99.90
16976;DHT22;8604;48.148;-1.786;2023-06-22T15:27:41;27.00;99.90
16976;DHT22;8604;48.148;-1.786;2023-06-22T15:30:10;27.00;99.90
16976;DHT22;8604;48.148;-1.786;2023-06-22T15:32:39;27.00;99.90
16976;DHT22;8604;48.148;-1.786;2023-06-22T15:35:11;26.90;99.90
16976;DHT22;8604;48.148;-1.786;2023-06-22T15:37:41;26.90;99.90
16976;DHT22;8604;48.148;-1.786;2023-06-22T15:40:10;26.90;99.90
16976;DHT22;8604;48.148;-1.786;2023-06-22T15:43:14;26.80;99.90
16976;DHT22;8604;48.148;-1.786;2023-06-22T15:46:08;26.80;99.90
16976;DHT22;8604;48.148;-1.786;2023-06-22T15:48:43;26.80;99.90
16976;DHT22;8604;48.148;-1.786;2023-06-22T15:51:41;26.70;99.90
16976;DHT22;8604;48.148;-1.786;2023-06-22T15:54:14;26.70;99.90
16976;DHT22;8604;48.148;-1.786;2023-06-22T15:56:46;26.60;99.90
16976;DHT22;8604;48.148;-1.786;2023-06-22T15:59:20;26.60;99.90
16976;DHT22;8604;48.148;-1.786;2023-06-22T16:01:48;26.50;99.90
16976;DHT22;8604;48.148;-1.786;2023-06-22T16:04:17;26.40;99.90
16976;DHT22;8604;48.148;-1.786;2023-06-22T16:06:59;26.30;99.90
16976;DHT22;8604;48.148;-1.786;2023-06-22T16:09:48;26.40;99.90
16976;DHT22;8604;48.148;-1.786;2023-06-22T16:12:17;26.40;99.90
16976;DHT22;8604;48.148;-1.786;2023-06-22T16:14:46;26.30;99.90
16976;DHT22;8604;48.148;-1.786;2023-06-22T16:17:15;26.20;99.90
16976;DHT22;8604;48.148;-1.786;2023-06-22T16:19:43;26.20;99.90
16976;DHT22;8604;48.148;-1.786;2023-06-22T16:22:14;26.10;99.90
16976;DHT22;8604;48.148;-1.786;2023-06-22T16:24:44;26.10;99.90
16976;DHT22;8604;48.148;-1.786;2023-06-22T16:27:21;26.00;99.90
16976;DHT22;8604;48.148;-1.786;2023-06-22T16:29:51;26.00;99.90
16976;DHT22;8604;48.148;-1.786;2023-06-22T16:32:20;25.90;99.90
16976;DHT22;8604;48.148;-1.786;2023-06-22T16:34:49;25.90;99.90
16976;DHT22;8604;48.148;-1.786;2023-06-22T16:37:20;25.90;99.90
16976;DHT22;8604;48.148;-1.786;2023-06-22T16:39:49;25.80;99.90
16976;DHT22;8604;48.148;-1.786;2023-06-22T16:42:17;25.70;99.90
16976;DHT22;8604;48.148;-1.786;2023-06-22T16:44:48;25.60;99.90
16976;DHT22;8604;48.148;-1.786;2023-06-22T16:47:16;25.50;99.90
16976;DHT22;8604;48.148;-1.786;2023-06-22T16:49:45;25.50;99.90
16976;DHT22;8604;48.148;-1.786;2023-06-22T16:52:13;25.40;99.90
16976;DHT22;8604;48.148;-1.786;2023-06-22T16:54:42;25.40;99.90
16976;DHT22;8604;48.148;-1.786;2023-06-22T16:57:25;25.30;99.90
16976;DHT22;8604;48.148;-1.786;2023-06-22T16:59:55;25.20;99.90
16976;DHT22;8604;48.148;-1.786;2023-06-22T17:02:24;25.20;99.90
16976;DHT22;8604;48.148;-1.786;2023-06-22T17:04:54;25.20;99.90
16976;DHT22;8604;48.148;-1.786;2023-06-22T17:07:26;25.30;99.90
16976;DHT22;8604;48.148;-1.786;2023-06-22T17:09:55;25.30;99.90
16976;DHT22;8604;48.148;-1.786;2023-06-22T17:12:25;25.30;99.90
16976;DHT22;8604;48.148;-1.786;2023-06-22T17:14:57;25.20;99.90
16976;DHT22;8604;48.148;-1.786;2023-06-22T17:17:28;25.10;99.90
16976;DHT22;8604;48.148;-1.786;2023-06-22T17:19:57;25.10;99.90
16976;DHT22;8604;48.148;-1.786;2023-06-22T17:22:26;25.10;99.90
16976;DHT22;8604;48.148;-1.786;2023-06-22T17:24:59;25.10;99.90
16976;DHT22;8604;48.148;-1.786;2023-06-22T17:27:29;25.10;99.90
16976;DHT22;8604;48.148;-1.786;2023-06-22T17:30:09;25.10;99.90
16976;DHT22;8604;48.148;-1.786;2023-06-22T17:32:37;25.10;99.90
16976;DHT22;8604;48.148;-1.786;2023-06-22T17:35:08;25.00;99.90
16976;DHT22;8604;48.148;-1.786;2023-06-22T17:37:47;25.00;99.90
16976;DHT22;8604;48.148;-1.786;2023-06-22T17:40:17;25.00;99.90
16976;DHT22;8604;48.148;-1.786;2023-06-22T17:42:46;24.80;99.90
16976;DHT22;8604;48.148;-1.786;2023-06-22T17:45:17;24.80;99.90
16976;DHT22;8604;48.148;-1.786;2023-06-22T17:47:47;24.70;99.90
16976;DHT22;8604;48.148;-1.786;2023-06-22T17:50:17;24.70;99.90
16976;DHT22;8604;48.148;-1.786;2023-06-22T17:52:49;24.60;99.90
16976;DHT22;8604;48.148;-1.786;2023-06-22T17:55:20;24.60;99.90
16976;DHT22;8604;48.148;-1.786;2023-06-22T17:57:54;24.50;99.90
16976;DHT22;8604;48.148;-1.786;2023-06-22T18:00:25;24.50;99.90
16976;DHT22;8604;48.148;-1.786;2023-06-22T18:02:54;24.40;99.90
16976;DHT22;8604;48.148;-1.786;2023-06-22T18:05:30;24.20;99.90
16976;DHT22;8604;48.148;-1.786;2023-06-22T18:08:01;24.20;99.90
16976;DHT22;8604;48.148;-1.786;2023-06-22T18:10:31;24.20;99.90
16976;DHT22;8604;48.148;-1.786;2023-06-22T18:13:01;24.20;99.90
16976;DHT22;8604;48.148;-1.786;2023-06-22T18:15:32;24.20;99.90
16976;DHT22;8604;48.148;-1.786;2023-06-22T18:18:09;24.10;99.90
16976;DHT22;8604;48.148;-1.786;2023-06-22T18:21:25;24.00;99.90
16976;DHT22;8604;48.148;-1.786;2023-06-22T18:24:01;23.90;99.90
16976;DHT22;8604;48.148;-1.786;2023-06-22T18:26:42;23.80;99.90
16976;DHT22;8604;48.148;-1.786;2023-06-22T18:29:12;23.70;99.90
16976;DHT22;8604;48.148;-1.786;2023-06-22T18:31:42;23.70;99.90
16976;DHT22;8604;48.148;-1.786;2023-06-22T18:37:36;23.60;99.90
16976;DHT22;8604;48.148;-1.786;2023-06-22T18:40:13;23.50;99.90
16976;DHT22;8604;48.148;-1.786;2023-06-22T20:31:23;21.00;99.90
16976;DHT22;8604;48.148;-1.786;2023-06-22T20:34:02;21.00;99.90
16976;DHT22;8604;48.148;-1.786;2023-06-22T20:37:00;20.90;99.90
16976;DHT22;8604;48.148;-1.786;2023-06-22T20:39:30;20.80;99.90
16976;DHT22;8604;48.148;-1.786;2023-06-22T20:41:59;20.70;99.90
16976;DHT22;8604;48.148;-1.786;2023-06-22T20:44:28;20.70;99.90
16976;DHT22;8604;48.148;-1.786;2023-06-22T20:46:58;20.50;99.90
16976;DHT22;8604;48.148;-1.786;2023-06-22T20:49:26;20.40;99.90
16976;DHT22;8604;48.148;-1.786;2023-06-22T20:51:55;20.40;99.90
16976;DHT22;8604;48.148;-1.786;2023-06-22T20:54:24;20.30;99.90
16976;DHT22;8604;48.148;-1.786;2023-06-22T20:56:53;20.20;99.90
16976;DHT22;8604;48.148;-1.786;2023-06-22T20:59:21;20.20;99.90
16976;DHT22;8604;48.148;-1.786;2023-06-22T21:01:51;20.10;99.90
16976;DHT22;8604;48.148;-1.786;2023-06-22T21:04:49;20.00;99.90
16976;DHT22;8604;48.148;-1.786;2023-06-22T21:07:20;19.90;99.90
16976;DHT22;8604;48.148;-1.786;2023-06-22T21:09:48;19.80;99.90
16976;DHT22;8604;48.148;-1.786;2023-06-22T21:12:18;19.70;99.90
16976;DHT22;8604;48.148;-1.786;2023-06-22T21:14:47;19.60;99.90
16976;DHT22;8604;48.148;-1.786;2023-06-22T21:17:17;19.50;99.90
16976;DHT22;8604;48.148;-1.786;2023-06-22T21:19:48;19.50;99.90
16976;DHT22;8604;48.148;-1.786;2023-06-22T21:22:17;19.40;99.90
16976;DHT22;8604;48.148;-1.786;2023-06-22T21:25:04;19.40;99.90
16976;DHT22;8604;48.148;-1.786;2023-06-22T21:27:32;19.30;99.90
16976;DHT22;8604;48.148;-1.786;2023-06-22T21:30:02;19.30;99.90
16976;DHT22;8604;48.148;-1.786;2023-06-22T21:32:31;19.10;99.90
16976;DHT22;8604;48.148;-1.786;2023-06-22T21:35:01;19.00;99.90
16976;DHT22;8604;48.148;-1.786;2023-06-22T21:37:31;19.00;99.90
16976;DHT22;8604;48.148;-1.786;2023-06-22T21:39:59;18.90;99.90
16976;DHT22;8604;48.148;-1.786;2023-06-22T21:42:28;18.90;99.90
16976;DHT22;8604;48.148;-1.786;2023-06-22T21:44:56;18.90;99.90
16976;DHT22;8604;48.148;-1.786;2023-06-22T21:47:24;18.90;99.90
16976;DHT22;8604;48.148;-1.786;2023-06-22T21:49:53;18.90;99.90
16976;DHT22;8604;48.148;-1.786;2023-06-22T21:52:23;18.90;99.90
16976;DHT22;8604;48.148;-1.786;2023-06-22T21:54:51;18.90;99.90
16976;DHT22;8604;48.148;-1.786;2023-06-22T21:57:20;18.80;99.90
16976;DHT22;8604;48.148;-1.786;2023-06-22T21:59:53;18.90;99.90
16976;DHT22;8604;48.148;-1.786;2023-06-22T22:02:22;18.90;99.90
16976;DHT22;8604;48.148;-1.786;2023-06-22T22:04:51;18.80;99.90